Time;durP1;ratioP1;P1;durP2;ratioP2;P2;SDS_P1;SDS_P2;PMS_P1;PMS_P2;Temp;Humidity;BMP_temperature;BMP_pressure;BME280_temperature;BME280_humidity;BME280_pressure;Samples;Min_cycle;Max_cycle;Signal;HPM_P1;HPM_P2
2022/10/20 04:00:57;;;;;;;7.28;4.00;;;;;;;8.97;67.86;101508.41;5606154;31;78504;-55
2022/10/20 04:03:59;;;;;;;7.20;4.35;;;;;;;8.97;67.86;101508.41;5583720;31;33349;-56
2022/10/20 04:07:01;;;;;;;6.82;4.07;;;;;;;8.35;69.28;101511.81;5583875;31;34288;-55
2022/10/20 04:10:04;;;;;;;7.72;4.40;;;;;;;8.40;69.15;101519.16;5583497;32;33674;-56
2022/10/20 04:13:06;;;;;;;8.13;4.68;;;;;;;8.46;68.75;101519.00;5583681;32;33732;-55
2022/10/20 04:16:10;;;;;;;8.15;4.30;;;;;;;8.42;68.75;101511.72;5583461;31;33615;-55
2022/10/20 04:19:12;;;;;;;8.35;3.97;;;;;;;8.32;69.19;101520.31;5583466;31;34144;-56
2022/10/20 04:22:15;;;;;;;8.13;3.97;;;;;;;8.36;69.22;101518.78;5583344;31;33658;-56
2022/10/20 04:25:17;;;;;;;10.07;4.50;;;;;;;8.36;68.83;101518.78;5583409;31;33834;-56
2022/10/20 04:28:20;;;;;;;6.78;4.30;;;;;;;8.30;68.98;101510.91;5574232;31;33544;-56
2022/10/20 04:31:22;;;;;;;5.78;3.80;;;;;;;8.40;68.50;101509.25;5563862;32;34905;-55
2022/10/20 04:34:24;;;;;;;6.95;4.37;;;;;;;8.24;69.44;101510.81;5563880;32;34344;-56
2022/10/20 04:37:26;;;;;;;7.45;3.85;;;;;;;8.27;69.27;101514.84;5563943;32;34185;-56
2022/10/20 04:40:28;;;;;;;6.78;4.53;;;;;;;8.31;68.76;101510.69;5569681;32;33602;-56
2022/10/20 04:43:31;;;;;;;8.18;4.00;;;;;;;8.16;69.25;101510.38;5583199;31;35193;-56
2022/10/20 04:46:34;;;;;;;9.73;5.12;;;;;;;8.14;69.36;101512.44;5574185;31;33766;-56
2022/10/20 04:49:36;;;;;;;8.43;5.30;;;;;;;7.97;69.96;101509.69;5583221;32;34312;-56
2022/10/20 04:52:38;;;;;;;6.50;4.60;;;;;;;8.00;69.98;101506.56;5574618;31;33341;-55
2022/10/20 04:55:40;;;;;;;8.00;5.75;;;;;;;7.90;69.96;101512.50;5578484;31;33731;-56
2022/10/20 04:58:47;;;;;;;12.05;4.60;;;;;;;7.95;70.23;101512.63;5583028;32;33572;-56
2022/10/20 05:01:49;;;;;;;;;;;;;;;8.06;69.97;101508.28;5582012;32;33818;-55
2022/10/20 05:04:51;;;;;;;11.18;4.62;;;;;;;8.10;69.66;101508.63;5580225;32;32167;-55
2022/10/20 05:07:53;;;;;;;10.70;5.78;;;;;;;8.06;69.72;101521.66;5581818;31;34346;-56
2022/10/20 05:10:59;;;;;;;9.07;5.05;;;;;;;8.12;69.84;101525.25;5574373;32;33623;-55
2022/10/20 05:14:03;;;;;;;8.40;5.22;;;;;;;8.12;69.40;101530.59;5566088;32;34088;-56
2022/10/20 05:17:05;;;;;;;8.32;4.82;;;;;;;7.99;69.81;101535.13;5564035;32;33868;-57
2022/10/20 05:20:11;;;;;;;11.13;5.73;;;;;;;8.08;69.13;101540.94;5568397;32;34310;-56
2022/10/20 05:23:14;;;;;;;18.85;7.15;;;;;;;8.10;69.09;101540.69;5568148;32;33187;-56
2022/10/20 05:26:17;;;;;;;14.43;6.43;;;;;;;8.15;69.23;101544.28;5567972;32;33666;-55
2022/10/20 05:29:19;;;;;;;11.43;6.55;;;;;;;8.21;68.71;101555.87;5556432;32;32017;-56
2022/10/20 05:32:21;;;;;;;13.62;7.60;;;;;;;8.08;69.14;101548.09;5549805;32;34195;-56
2022/10/20 05:35:24;;;;;;;13.62;6.18;;;;;;;7.96;69.74;101554.28;5567027;32;33772;-55
2022/10/20 05:38:27;;;;;;;49.88;8.73;;;;;;;7.94;70.22;101561.69;5567738;32;33320;-56
2022/10/20 05:41:32;;;;;;;12.32;6.20;;;;;;;7.89;70.01;101566.13;5567336;32;32961;-55
2022/10/20 05:44:39;;;;;;;17.67;6.53;;;;;;;7.85;70.18;101578.34;5554695;31;33582;-57
2022/10/20 05:47:42;;;;;;;11.57;5.62;;;;;;;7.96;69.80;101588.19;5554828;32;34462;-56
2022/10/20 05:50:44;;;;;;;49.53;8.93;;;;;;;7.99;69.38;101585.87;5559109;32;33803;-56
2022/10/20 05:53:54;;;;;;;14.32;5.97;;;;;;;8.00;69.85;101590.16;5564143;32;33244;-55
2022/10/20 05:56:56;;;;;;;15.55;6.50;;;;;;;8.13;69.57;101591.78;5566727;32;33675;-55
2022/10/20 06:00:03;;;;;;;15.17;6.90;;;;;;;8.09;69.51;101595.16;5565732;31;33830;-56
2022/10/20 06:03:12;;;;;;;20.37;6.70;;;;;;;8.27;69.00;101595.00;5549472;32;34283;-55
2022/10/20 06:06:22;;;;;;;20.40;6.97;;;;;;;8.25;69.79;101599.78;5559026;32;33726;-55
2022/10/20 06:09:24;;;;;;;17.83;7.40;;;;;;;8.20;69.43;101597.78;5567882;32;33754;-56
2022/10/20 06:12:26;;;;;;;13.27;6.37;;;;;;;8.40;68.31;101602.78;5566891;31;33576;-56
2022/10/20 06:15:28;;;;;;;14.85;6.50;;;;;;;8.43;69.00;101610.34;5567248;32;34047;-56
2022/10/20 06:18:32;;;;;;;13.77;6.95;;;;;;;8.65;68.54;101607.03;5566901;32;33747;-56
2022/10/20 06:21:35;;;;;;;20.83;6.97;;;;;;;8.56;68.71;101614.62;5566791;32;34063;-56
2022/10/20 06:24:38;;;;;;;14.98;7.78;;;;;;;8.60;69.17;101621.09;5566773;32;34376;-56
2022/10/20 06:27:41;;;;;;;25.67;7.28;;;;;;;8.75;69.15;101625.97;5566432;31;33676;-56
2022/10/20 06:30:43;;;;;;;13.60;6.80;;;;;;;8.87;69.01;101629.41;5567176;32;33599;-56
2022/10/20 06:33:46;;;;;;;23.25;7.18;;;;;;;8.86;69.17;101635.00;5566664;32;33661;-56
2022/10/20 06:36:49;;;;;;;20.25;6.50;;;;;;;8.83;69.21;101633.59;5566993;32;33174;-55
2022/10/20 06:39:51;;;;;;;16.05;7.65;;;;;;;8.94;68.91;101638.09;5566589;32;34170;-56
2022/10/20 06:42:55;;;;;;;15.98;7.72;;;;;;;9.11;68.38;101645.38;5565624;32;33674;-55
2022/10/20 06:46:01;;;;;;;22.92;7.07;;;;;;;9.29;67.43;101645.16;5565274;32;33237;-56
2022/10/20 06:49:06;;;;;;;21.90;7.57;;;;;;;9.36;67.00;101640.47;5565066;32;33656;-55
2022/10/20 06:52:10;;;;;;;14.55;7.15;;;;;;;9.40;67.18;101638.94;5563394;32;33890;-56
2022/10/20 06:55:17;;;;;;;15.77;8.13;;;;;;;9.52;67.09;101643.41;5560549;32;33812;-55
2022/10/20 06:58:21;;;;;;;14.10;8.02;;;;;;;9.56;67.95;101648.03;5564135;32;34040;-56
2022/10/20 07:01:27;;;;;;;13.40;7.05;;;;;;;9.60;68.09;101648.34;5565831;32;33657;-56
2022/10/20 07:04:29;;;;;;;58.63;9.60;;;;;;;9.68;68.39;101647.16;5563805;32;33638;-56
2022/10/20 07:07:31;;;;;;;32.15;8.13;;;;;;;9.93;68.54;101652.09;5566513;32;33715;-56
2022/10/20 07:10:34;;;;;;;22.35;7.75;;;;;;;10.03;67.79;101652.25;5567360;31;33863;-56
2022/10/20 07:13:37;;;;;;;20.98;7.45;;;;;;;10.06;68.26;101657.94;5562355;31;33882;-56
2022/10/20 07:16:39;;;;;;;16.95;9.02;;;;;;;10.13;68.49;101660.44;5566844;32;34310;-56
2022/10/20 07:19:42;;;;;;;16.83;7.97;;;;;;;10.30;67.25;101666.63;5567199;32;33675;-56
2022/10/20 07:22:44;;;;;;;14.15;7.55;;;;;;;10.56;66.63;101667.78;5567867;32;33776;-55
2022/10/20 07:25:46;;;;;;;15.15;7.50;;;;;;;10.65;65.11;101661.97;5566290;32;34338;-56
2022/10/20 07:28:53;;;;;;;12.75;7.45;;;;;;;10.72;65.72;101662.59;5563206;32;33718;-55
2022/10/20 07:31:57;;;;;;;17.33;7.32;;;;;;;10.91;65.15;101671.97;5567322;32;34265;-56
2022/10/20 07:35:03;;;;;;;10.27;7.63;;;;;;;10.96;64.94;101665.84;5567172;32;33573;-56
2022/10/20 07:38:05;;;;;;;11.88;7.43;;;;;;;10.95;64.38;101664.22;5557466;32;33601;-56
2022/10/20 07:41:08;;;;;;;11.50;6.82;;;;;;;11.04;64.33;101665.41;5548257;32;34561;-55
2022/10/20 07:44:10;;;;;;;15.07;6.90;;;;;;;11.02;64.81;101660.28;5552905;32;33717;-56
2022/10/20 07:47:12;;;;;;;11.02;6.57;;;;;;;11.20;63.03;101669.88;5562145;32;33748;-56
2022/10/20 07:50:15;;;;;;;11.82;6.37;;;;;;;11.31;63.85;101668.09;5562581;32;34310;-56
2022/10/20 07:53:17;;;;;;;11.15;5.90;;;;;;;11.39;64.05;101672.19;5563543;32;33946;-55
2022/10/20 07:56:19;;;;;;;10.18;5.65;;;;;;;11.73;61.42;101670.09;5561936;32;34260;-56
2022/10/20 07:59:23;;;;;;;10.70;5.22;;;;;;;11.81;61.06;101669.62;5563367;31;34227;-56
2022/10/20 08:02:25;;;;;;;11.73;5.87;;;;;;;11.83;60.85;101669.38;5562354;32;33727;-55
2022/10/20 08:05:28;;;;;;;12.10;5.87;;;;;;;11.99;60.20;101669.25;5564329;32;33298;-56
2022/10/20 08:08:31;;;;;;;8.75;5.70;;;;;;;12.04;60.01;101671.16;5565506;32;34246;-56
2022/10/20 08:11:34;;;;;;;9.70;5.80;;;;;;;11.96;61.25;101671.66;5566284;32;34362;-56
2022/10/20 08:14:36;;;;;;;12.65;6.43;;;;;;;11.86;62.21;101669.69;5565498;32;33612;-56
2022/10/20 08:17:39;;;;;;;7.37;5.85;;;;;;;12.18;59.89;101669.62;5564665;32;34475;-56
2022/10/20 08:20:44;;;;;;;8.48;6.28;;;;;;;12.18;59.98;101666.16;5565295;32;34270;-55
2022/10/20 08:23:48;;;;;;;11.10;6.80;;;;;;;12.19;60.40;101673.16;5563372;32;33688;-55
2022/10/20 08:26:50;;;;;;;15.40;6.85;;;;;;;12.20;60.31;101680.16;5563801;32;34573;-57
2022/10/20 08:29:53;;;;;;;10.73;6.68;;;;;;;12.12;61.23;101683.31;5564612;32;33687;-56
2022/10/20 08:33:13;;;;;;;9.32;6.47;;;;;;;11.95;61.41;101695.03;5565650;32;33707;-56
2022/10/20 08:36:15;;;;;;;10.75;7.20;;;;;;;12.02;61.50;101680.53;5562338;32;34307;-56
2022/10/20 08:39:17;;;;;;;16.65;11.02;;;;;;;11.94;62.42;101681.84;5564069;32;33197;-56
2022/10/20 08:42:20;;;;;;;12.93;7.25;;;;;;;12.17;61.16;101684.16;5564129;32;34382;-56
2022/10/20 08:45:25;;;;;;;11.73;6.45;;;;;;;12.25;61.53;101692.81;5561582;32;34198;-56
2022/10/20 08:48:31;;;;;;;11.65;7.12;;;;;;;12.13;61.60;101682.25;5566162;32;33845;-56
2022/10/20 08:51:37;;;;;;;11.75;6.60;;;;;;;12.13;62.00;101688.44;5568475;32;33696;-56
2022/10/20 08:54:39;;;;;;;9.93;6.15;;;;;;;12.06;62.14;101679.78;5566555;32;34357;-56
2022/10/20 08:57:41;;;;;;;8.90;5.60;;;;;;;12.04;61.60;101686.47;5565223;32;33800;-56
2022/10/20 09:00:45;;;;;;;14.27;5.50;;;;;;;12.10;61.48;101683.56;5563706;32;33157;-56
2022/10/20 09:03:53;;;;;;;20.23;5.90;;;;;;;12.13;61.44;101691.13;5569100;32;33658;-56
2022/10/20 09:06:59;;;;;;;13.43;5.62;;;;;;;12.25;61.24;101690.94;5566983;32;34284;-57
2022/10/20 09:10:29;;;;;;;52.33;7.32;;;;;;;12.33;61.40;101692.34;5567877;32;34885;-56
2022/10/20 09:13:31;;;;;;;25.83;6.50;;;;;;;12.45;60.53;101684.87;5564516;32;33751;-56
2022/10/20 09:16:39;;;;;;;11.95;5.35;;;;;;;12.35;61.11;101688.31;5560993;32;33658;-56
2022/10/20 09:20:02;;;;;;;6.60;5.03;;;;;;;12.40;60.49;101688.34;5566396;32;34143;-56
2022/10/20 09:23:04;;;;;;;9.55;4.40;;;;;;;12.78;58.00;101688.25;5566969;32;33665;-56
2022/10/20 09:26:34;;;;;;;17.52;5.30;;;;;;;12.88;56.90;101685.59;5563402;32;33636;-56
2022/10/20 09:29:56;;;;;;;20.48;6.10;;;;;;;12.72;58.53;101683.94;5561769;32;33970;-55
2022/10/20 09:32:59;;;;;;;8.10;4.57;;;;;;;12.74;58.69;101685.28;5566562;32;33650;-56
2022/10/20 09:36:20;;;;;;;11.98;5.47;;;;;;;12.80;58.65;101686.91;5567049;32;33874;-56
2022/10/20 09:39:26;;;;;;;8.70;5.18;;;;;;;12.87;58.53;101692.06;5560175;32;34668;-56
2022/10/20 09:42:34;;;;;;;13.40;5.03;;;;;;;12.91;57.83;101690.44;5564515;32;33647;-56
2022/10/20 09:45:57;;;;;;;10.13;5.18;;;;;;;12.94;57.58;101688.03;5567743;32;34340;-56
2022/10/20 09:48:59;;;;;;;7.20;5.20;;;;;;;12.98;57.31;101692.91;5567859;32;33690;-56
2022/10/20 09:52:13;;;;;;;10.13;5.87;;;;;;;13.02;57.42;101683.25;5567914;32;34444;-56
2022/10/20 09:55:28;;;;;;;10.90;5.60;;;;;;;13.10;56.71;101686.22;5567742;32;33702;-56
2022/10/20 09:58:34;;;;;;;12.00;5.37;;;;;;;12.98;58.03;101688.34;5568201;32;33655;-55
2022/10/20 10:01:52;;;;;;;10.20;5.55;;;;;;;12.93;58.03;101682.94;5568169;32;34358;-56
2022/10/20 10:05:12;;;;;;;8.77;5.47;;;;;;;12.91;58.09;101679.69;5567600;32;34387;-56
2022/10/20 10:08:15;;;;;;;8.18;5.07;;;;;;;13.14;57.89;101686.50;5567330;32;34287;-56
2022/10/20 10:11:20;;;;;;;7.43;4.75;;;;;;;13.18;56.82;101684.91;5568727;32;33633;-56
2022/10/20 10:14:22;;;;;;;9.35;5.20;;;;;;;13.32;56.39;101679.84;5567739;32;31894;-56
2022/10/20 10:17:27;;;;;;;8.85;5.10;;;;;;;13.25;57.21;101676.59;5562200;32;32205;-56
2022/10/20 10:20:37;;;;;;;8.77;4.85;;;;;;;13.39;55.68;101675.00;5563921;32;33720;-55
2022/10/20 10:24:27;;;;;;;14.30;5.43;;;;;;;13.35;56.57;101673.94;5559531;32;34012;-56
2022/10/20 10:27:32;;;;;;;7.75;5.20;;;;;;;13.28;57.45;101662.59;5557903;32;33118;-55
2022/10/20 10:30:37;;;;;;;7.50;5.15;;;;;;;13.43;56.32;101656.41;5567153;32;33632;-56
2022/10/20 10:33:40;;;;;;;17.80;6.10;;;;;;;13.49;55.83;101653.47;5563522;32;33800;-56
2022/10/20 10:36:43;;;;;;;9.23;5.50;;;;;;;13.55;56.84;101649.69;5565085;32;34425;-56
2022/10/20 10:39:45;;;;;;;7.43;5.55;;;;;;;13.68;55.64;101648.38;5564030;32;33016;-56
2022/10/20 10:43:06;;;;;;;8.90;5.00;;;;;;;13.53;56.06;101646.44;5563004;32;33928;-55
2022/10/20 10:46:36;;;;;;;9.95;5.72;;;;;;;13.48;56.28;101641.09;5561204;31;33758;-56
2022/10/20 10:49:59;;;;;;;14.00;5.57;;;;;;;13.44;56.89;101636.47;5562242;32;33216;-56
2022/10/20 10:53:22;;;;;;;8.93;5.28;;;;;;;13.33;56.22;101643.75;5554653;32;33533;-56
2022/10/20 10:56:28;;;;;;;9.27;5.65;;;;;;;13.61;56.89;101627.06;5566152;32;34859;-56
2022/10/20 10:59:41;;;;;;;10.68;5.65;;;;;;;13.45;55.79;101627.34;5563421;32;34905;-56
2022/10/20 11:02:46;;;;;;;12.02;5.47;;;;;;;13.44;56.35;101613.03;5565163;32;33641;-56
2022/10/20 11:05:59;;;;;;;8.10;5.03;;;;;;;13.72;55.49;101614.41;5561130;32;34299;-56
2022/10/20 11:09:20;;;;;;;11.57;4.80;;;;;;;13.56;56.52;101605.50;5561413;32;33600;-56
2022/10/20 11:12:44;;;;;;;7.87;4.75;;;;;;;13.75;56.60;101595.00;5561399;32;33848;-57
2022/10/20 11:16:01;;;;;;;10.15;4.22;;;;;;;13.82;54.76;101589.31;5564037;32;34592;-56
2022/10/20 11:19:49;;;;;;;6.90;3.00;;;;;;;13.75;54.67;101595.00;5566386;32;33683;-55
2022/10/20 11:23:24;;;;;;;7.85;2.78;;;;;;;13.93;54.52;101577.44;5506869;32;33783;-57
2022/10/20 11:26:35;;;;;;;8.13;3.08;;;;;;;14.05;54.06;101574.44;5558809;32;33740;-56
2022/10/20 11:29:46;;;;;;;5.60;2.80;;;;;;;14.19;53.07;101580.06;5559336;32;33706;-56
2022/10/20 11:32:48;;;;;;;6.55;3.10;;;;;;;14.24;52.08;101578.16;5566279;32;34386;-56
2022/10/20 11:35:52;;;;;;;5.35;3.33;;;;;;;14.07;52.66;101565.00;5559693;32;33744;-55
2022/10/20 11:38:55;;;;;;;6.55;2.87;;;;;;;14.25;51.38;101558.19;5563271;32;33683;-56
2022/10/20 11:42:09;;;;;;;6.97;2.95;;;;;;;14.22;51.95;101550.66;5561991;32;33765;-56
2022/10/20 11:45:36;;;;;;;3.70;2.42;;;;;;;14.43;50.32;101548.66;5555861;32;33503;-56
2022/10/20 11:48:53;;;;;;;4.55;2.65;;;;;;;14.37;51.17;101540.88;5566262;32;33629;-56
2022/10/20 11:52:21;;;;;;;4.57;2.50;;;;;;;14.40;51.80;101538.41;5557028;32;33766;-56
2022/10/20 11:55:34;;;;;;;4.15;2.70;;;;;;;14.59;50.30;101537.84;5563422;32;34188;-56
2022/10/20 11:59:00;;;;;;;6.90;2.78;;;;;;;14.41;51.09;101547.34;5563384;32;33649;-56
2022/10/20 12:02:39;;;;;;;4.03;2.85;;;;;;;14.56;50.79;101534.59;5547917;32;34315;-56
2022/10/20 12:06:02;;;;;;;5.53;3.25;;;;;;;14.52;51.54;101532.75;5564067;32;33700;-55
2022/10/20 12:09:42;;;;;;;4.85;2.70;;;;;;;14.48;51.10;101537.84;5556575;32;33770;-56
2022/10/20 12:12:54;;;;;;;4.50;3.12;;;;;;;14.43;50.85;101535.16;5564957;32;32186;-56
2022/10/20 12:15:56;;;;;;;6.80;3.00;;;;;;;14.51;49.62;101536.53;5566902;32;34315;-56
2022/10/20 12:19:16;;;;;;;7.25;2.80;;;;;;;14.63;50.21;101536.97;5565675;32;33734;-57
2022/10/20 12:22:27;;;;;;;4.62;3.03;;;;;;;14.51;51.14;101528.44;5559779;32;34874;-55
2022/10/20 12:25:29;;;;;;;6.87;3.22;;;;;;;14.43;51.24;101524.38;5562707;32;33630;-56
2022/10/20 12:28:32;;;;;;;7.12;2.90;;;;;;;14.36;50.64;101518.50;5568609;32;33614;-56
2022/10/20 12:32:12;;;;;;;6.93;3.45;;;;;;;14.50;50.23;101519.53;5568064;32;34473;-56
2022/10/20 12:35:14;;;;;;;4.97;2.80;;;;;;;14.71;49.95;101519.41;5566046;32;33666;-56
2022/10/20 12:38:17;;;;;;;5.85;2.92;;;;;;;14.75;49.34;101510.47;5569481;32;33725;-56
2022/10/20 12:41:26;;;;;;;4.68;2.90;;;;;;;14.67;49.79;101511.06;5567358;32;33571;-56
2022/10/20 12:44:39;;;;;;;6.78;3.40;;;;;;;14.48;50.56;101501.97;5566744;32;33680;-56
2022/10/20 12:47:48;;;;;;;8.60;3.22;;;;;;;14.29;51.08;101501.81;5568484;32;33083;-56
2022/10/20 12:50:51;;;;;;;5.28;2.90;;;;;;;14.26;51.44;101500.47;5568352;32;34342;-56
2022/10/20 12:53:58;;;;;;;6.10;2.83;;;;;;;14.33;51.03;101492.06;5568516;32;34483;-56
2022/10/20 12:57:04;;;;;;;6.60;3.12;;;;;;;14.44;51.83;101485.53;5568805;32;34395;-56
2022/10/20 13:00:20;;;;;;;3.97;2.78;;;;;;;14.55;50.42;101484.41;5569923;32;34216;-56
2022/10/20 13:03:45;;;;;;;3.80;3.05;;;;;;;14.64;51.49;101483.84;5568871;32;34424;-56
2022/10/20 13:06:47;;;;;;;5.53;2.90;;;;;;;14.50;50.97;101476.38;5569789;32;34266;-56
2022/10/20 13:09:53;;;;;;;7.60;3.05;;;;;;;14.53;51.42;101474.97;5570122;32;33721;-56
2022/10/20 13:13:01;;;;;;;6.25;3.47;;;;;;;14.66;50.62;101477.06;5568723;32;33688;-55
2022/10/20 13:16:13;;;;;;;6.75;3.15;;;;;;;14.79;49.72;101472.91;5561134;32;33891;-56
2022/10/20 13:19:20;;;;;;;7.07;2.70;;;;;;;14.64;50.61;101470.34;5568619;32;33846;-56
2022/10/20 13:22:36;;;;;;;6.53;3.12;;;;;;;14.56;50.74;101477.94;5569416;32;34228;-56
2022/10/20 13:25:43;;;;;;;5.55;2.80;;;;;;;14.58;50.50;101474.97;5569565;32;34239;-55
2022/10/20 13:28:48;;;;;;;12.32;3.25;;;;;;;14.62;49.80;101473.31;5568579;31;34037;-56
2022/10/20 13:32:16;;;;;;;8.50;2.92;;;;;;;14.54;50.45;101474.72;5569256;32;33626;-55
2022/10/20 13:35:31;;;;;;;42.40;4.85;;;;;;;14.56;51.00;101472.53;5555391;32;34329;-56
2022/10/20 13:38:39;;;;;;;28.75;4.15;;;;;;;14.68;50.96;101477.59;5564788;32;33668;-56
2022/10/20 13:41:49;;;;;;;5.53;2.85;;;;;;;14.70;50.64;101463.81;5566852;32;33761;-57
2022/10/20 13:45:06;;;;;;;6.40;3.60;;;;;;;14.71;50.25;101465.44;5567040;32;33975;-56
2022/10/20 13:48:24;;;;;;;5.35;2.80;;;;;;;14.57;50.91;101463.38;5567507;32;33553;-56
2022/10/20 13:51:33;;;;;;;11.18;2.95;;;;;;;14.53;51.44;101453.41;5566987;32;34555;-56
2022/10/20 13:54:39;;;;;;;4.78;2.37;;;;;;;14.61;50.43;101460.91;5567881;32;33922;-56
2022/10/20 13:57:49;;;;;;;7.03;2.70;;;;;;;14.73;49.95;101457.84;5568167;32;33404;-56
2022/10/20 14:01:12;;;;;;;4.43;2.90;;;;;;;14.77;49.26;101453.50;5569065;32;33653;-56
2022/10/20 14:04:41;;;;;;;6.70;3.10;;;;;;;14.61;49.55;101452.81;5569026;32;34365;-56
2022/10/20 14:07:43;;;;;;;6.95;3.40;;;;;;;14.47;50.41;101455.31;5565706;32;33576;-56
2022/10/20 14:10:53;;;;;;;13.23;9.55;;;;;;;14.40;49.79;101448.59;5569125;32;34046;-57
2022/10/20 14:13:59;;;;;;;15.32;7.90;;;;;;;14.48;50.19;101448.81;5567858;32;33687;-56
2022/10/20 14:17:05;;;;;;;52.15;30.10;;;;;;;14.68;50.03;101439.00;5566574;32;34005;-56
2022/10/20 14:20:20;;;;;;;12.18;6.32;;;;;;;14.60;50.38;101436.87;5567780;32;33680;-57
2022/10/20 14:23:23;;;;;;;10.90;7.37;;;;;;;14.54;51.03;101445.03;5562786;32;34278;-55
2022/10/20 14:26:27;;;;;;;11.35;6.93;;;;;;;14.63;49.94;101439.84;5566973;32;33693;-56
2022/10/20 14:29:33;;;;;;;9.57;3.67;;;;;;;14.56;50.53;101431.25;5557345;32;33370;-56
2022/10/20 14:32:38;;;;;;;8.70;4.43;;;;;;;14.42;51.79;101433.75;5554912;32;33654;-56
2022/10/20 14:35:53;;;;;;;9.98;3.28;;;;;;;14.37;52.16;101433.81;5569420;32;33728;-56
2022/10/20 14:38:59;;;;;;;8.55;3.00;;;;;;;14.43;51.62;101440.75;5561274;32;32307;-56
2022/10/20 14:42:03;;;;;;;;;;;;;;;14.41;51.14;101436.75;5549893;32;33690;-56
2022/10/20 14:45:05;;;;;;;39.17;28.40;;;;;;;14.42;51.41;101441.03;5568187;32;34762;-56
2022/10/20 14:48:15;;;;;;;17.48;11.07;;;;;;;14.59;50.09;101433.37;5553097;32;33778;-56
2022/10/20 14:51:28;;;;;;;12.63;9.48;;;;;;;14.63;50.41;101433.63;5550034;32;34306;-56
2022/10/20 14:54:37;;;;;;;14.18;10.82;;;;;;;14.53;50.93;101442.59;5557233;32;33617;-55
2022/10/20 14:57:43;;;;;;;23.87;15.30;;;;;;;14.56;51.04;101431.25;5562715;32;34341;-56
2022/10/20 15:00:45;;;;;;;32.97;29.60;;;;;;;14.46;51.70;101432.09;5567554;32;33598;-56
2022/10/20 15:04:06;;;;;;;20.20;10.73;;;;;;;14.57;51.01;101433.69;5568846;32;34236;-56
2022/10/20 15:07:25;;;;;;;;;;;;;;;14.46;51.47;101429.41;5568475;32;33774;-56
2022/10/20 15:10:29;;;;;;;13.23;3.90;;;;;;;14.33;52.45;101424.63;5568980;32;34615;-56
2022/10/20 15:13:32;;;;;;;7.93;3.33;;;;;;;14.31;53.05;101421.44;5569205;32;33744;-56
2022/10/20 15:16:43;;;;;;;6.50;3.30;;;;;;;14.34;53.28;101415.47;5569004;32;34290;-56
2022/10/20 15:19:46;;;;;;;6.87;4.28;;;;;;;14.23;53.46;101416.59;5569016;32;34080;-56
2022/10/20 15:22:48;;;;;;;13.90;10.77;;;;;;;14.21;54.04;101416.91;5568835;32;33758;-56
2022/10/20 15:26:11;;;;;;;26.75;12.27;;;;;;;14.15;54.06;101414.50;5568475;32;33758;-57
2022/10/20 15:29:13;;;;;;;36.47;16.60;;;;;;;14.19;53.67;101410.97;5566018;31;33907;-56
2022/10/20 15:32:16;;;;;;;41.00;21.35;;;;;;;14.07;54.63;101418.56;5568475;32;32961;-56
